sensor_id;sensor_type;location;lat;lon;timestamp;pressure;altitude;pressure_sealevel;temperature;humidity
6218;BME280;3142;48.206;11.550;2023-08-17T00:01:52;95818.03;;;23.94;69.90
6218;BME280;3142;48.206;11.550;2023-08-17T00:04:18;95806.91;;;23.82;70.38
6218;BME280;3142;48.206;11.550;2023-08-17T00:06:45;95809.66;;;23.77;70.49
6218;BME280;3142;48.206;11.550;2023-08-17T00:09:12;95806.84;;;23.92;70.10
6218;BME280;3142;48.206;11.550;2023-08-17T00:11:39;95801.34;;;24.07;69.96
6218;BME280;3142;48.206;11.550;2023-08-17T00:14:05;95799.47;;;24.08;69.45
6218;BME280;3142;48.206;11.550;2023-08-17T00:16:33;95810.50;;;24.01;69.89
6218;BME280;3142;48.206;11.550;2023-08-17T00:18:59;95809.38;;;24.07;69.54
6218;BME280;3142;48.206;11.550;2023-08-17T00:21:26;95811.81;;;24.04;69.99
6218;BME280;3142;48.206;11.550;2023-08-17T00:23:52;95816.31;;;24.08;69.55
6218;BME280;3142;48.206;11.550;2023-08-17T00:26:19;95816.66;;;24.02;69.76
6218;BME280;3142;48.206;11.550;2023-08-17T00:28:46;95807.56;;;23.98;69.63
6218;BME280;3142;48.206;11.550;2023-08-17T00:31:12;95807.91;;;23.91;69.61
6218;BME280;3142;48.206;11.550;2023-08-17T00:33:40;95806.91;;;23.82;70.10
6218;BME280;3142;48.206;11.550;2023-08-17T00:36:06;95816.34;;;23.74;70.44
6218;BME280;3142;48.206;11.550;2023-08-17T00:38:33;95824.31;;;23.79;70.40
6218;BME280;3142;48.206;11.550;2023-08-17T00:40:59;95823.16;;;23.90;70.42
6218;BME280;3142;48.206;11.550;2023-08-17T00:43:26;95819.59;;;24.00;69.56
6218;BME280;3142;48.206;11.550;2023-08-17T00:45:53;95821.44;;;24.05;69.86
6218;BME280;3142;48.206;11.550;2023-08-17T00:48:22;95819.84;;;24.04;69.53
6218;BME280;3142;48.206;11.550;2023-08-17T00:50:50;95818.53;;;24.01;69.78
6218;BME280;3142;48.206;11.550;2023-08-17T00:53:18;95817.47;;;23.97;69.94
6218;BME280;3142;48.206;11.550;2023-08-17T00:55:46;95808.00;;;23.81;70.44
6218;BME280;3142;48.206;11.550;2023-08-17T00:58:13;95813.69;;;23.74;70.83
6218;BME280;3142;48.206;11.550;2023-08-17T01:00:40;95809.38;;;23.78;70.59
6218;BME280;3142;48.206;11.550;2023-08-17T01:03:07;95809.94;;;23.70;71.26
6218;BME280;3142;48.206;11.550;2023-08-17T01:05:33;95808.69;;;23.62;71.05
6218;BME280;3142;48.206;11.550;2023-08-17T01:08:01;95812.50;;;23.51;71.63
6218;BME280;3142;48.206;11.550;2023-08-17T01:10:39;95821.34;;;23.47;71.96
6218;BME280;3142;48.206;11.550;2023-08-17T01:13:11;95821.00;;;23.53;72.24
6218;BME280;3142;48.206;11.550;2023-08-17T01:15:42;95817.75;;;23.67;71.46
6218;BME280;3142;48.206;11.550;2023-08-17T01:18:17;95820.13;;;23.68;71.23
6218;BME280;3142;48.206;11.550;2023-08-17T01:20:48;95819.38;;;23.62;71.67
6218;BME280;3142;48.206;11.550;2023-08-17T01:23:16;95820.44;;;23.56;71.68
6218;BME280;3142;48.206;11.550;2023-08-17T01:25:43;95818.91;;;23.50;71.84
6218;BME280;3142;48.206;11.550;2023-08-17T01:28:09;95825.09;;;23.46;72.03
6218;BME280;3142;48.206;11.550;2023-08-17T01:30:39;95818.00;;;23.31;72.52
6218;BME280;3142;48.206;11.550;2023-08-17T01:33:09;95818.25;;;23.29;73.09
6218;BME280;3142;48.206;11.550;2023-08-17T01:35:39;95825.16;;;23.35;72.67
6218;BME280;3142;48.206;11.550;2023-08-17T01:38:14;95815.56;;;23.34;72.53
6218;BME280;3142;48.206;11.550;2023-08-17T01:40:44;95819.59;;;23.27;72.71
6218;BME280;3142;48.206;11.550;2023-08-17T01:43:12;95809.47;;;23.24;72.79
6218;BME280;3142;48.206;11.550;2023-08-17T01:45:38;95815.59;;;23.24;72.57
6218;BME280;3142;48.206;11.550;2023-08-17T01:48:05;95817.47;;;23.24;73.34
6218;BME280;3142;48.206;11.550;2023-08-17T01:50:32;95811.06;;;23.25;72.68
6218;BME280;3142;48.206;11.550;2023-08-17T01:52:58;95813.28;;;23.13;73.08
6218;BME280;3142;48.206;11.550;2023-08-17T01:55:25;95802.63;;;23.08;73.34
6218;BME280;3142;48.206;11.550;2023-08-17T01:57:53;95802.06;;;23.11;73.40
6218;BME280;3142;48.206;11.550;2023-08-17T02:00:19;95796.97;;;23.14;73.13
6218;BME280;3142;48.206;11.550;2023-08-17T02:02:46;95791.63;;;23.14;72.97
6218;BME280;3142;48.206;11.550;2023-08-17T02:05:12;95788.66;;;23.21;72.93
6218;BME280;3142;48.206;11.550;2023-08-17T02:07:39;95789.75;;;23.20;72.84
6218;BME280;3142;48.206;11.550;2023-08-17T02:10:06;95783.38;;;23.11;72.89
6218;BME280;3142;48.206;11.550;2023-08-17T02:12:32;95781.34;;;22.97;73.44
6218;BME280;3142;48.206;11.550;2023-08-17T02:15:00;95772.59;;;22.82;74.05
6218;BME280;3142;48.206;11.550;2023-08-17T02:17:27;95777.69;;;22.83;74.36
6218;BME280;3142;48.206;11.550;2023-08-17T02:19:53;95785.41;;;22.85;73.76
6218;BME280;3142;48.206;11.550;2023-08-17T02:22:19;95783.25;;;22.82;74.19
6218;BME280;3142;48.206;11.550;2023-08-17T02:24:46;95789.72;;;22.75;74.52
6218;BME280;3142;48.206;11.550;2023-08-17T02:27:12;95778.47;;;22.79;74.55
6218;BME280;3142;48.206;11.550;2023-08-17T02:29:39;95780.88;;;22.85;74.28
6218;BME280;3142;48.206;11.550;2023-08-17T02:32:07;95778.44;;;22.94;73.92
6218;BME280;3142;48.206;11.550;2023-08-17T02:34:33;95777.34;;;22.95;73.69
6218;BME280;3142;48.206;11.550;2023-08-17T02:36:59;95766.72;;;22.90;73.65
6218;BME280;3142;48.206;11.550;2023-08-17T02:39:26;95763.78;;;22.91;73.88
6218;BME280;3142;48.206;11.550;2023-08-17T02:41:52;95762.41;;;22.94;73.88
6218;BME280;3142;48.206;11.550;2023-08-17T02:44:20;95765.38;;;22.92;73.59
6218;BME280;3142;48.206;11.550;2023-08-17T02:46:46;95776.22;;;23.01;73.11
6218;BME280;3142;48.206;11.550;2023-08-17T02:49:14;95766.97;;;22.93;73.33
6218;BME280;3142;48.206;11.550;2023-08-17T02:51:41;95779.47;;;22.98;73.28
6218;BME280;3142;48.206;11.550;2023-08-17T02:54:07;95789.84;;;22.99;73.17
6218;BME280;3142;48.206;11.550;2023-08-17T02:56:33;95789.53;;;23.11;72.69
6218;BME280;3142;48.206;11.550;2023-08-17T02:59:00;95792.16;;;23.16;72.25
6218;BME280;3142;48.206;11.550;2023-08-17T03:01:26;95794.91;;;23.01;72.74
6218;BME280;3142;48.206;11.550;2023-08-17T03:03:54;95801.13;;;22.86;73.61
6218;BME280;3142;48.206;11.550;2023-08-17T03:06:22;95797.97;;;22.79;73.94
6218;BME280;3142;48.206;11.550;2023-08-17T03:08:48;95795.00;;;22.91;73.47
6218;BME280;3142;48.206;11.550;2023-08-17T03:11:14;95786.41;;;22.99;73.10
6218;BME280;3142;48.206;11.550;2023-08-17T03:13:41;95784.03;;;22.92;73.10
6218;BME280;3142;48.206;11.550;2023-08-17T03:16:07;95777.63;;;22.93;73.21
6218;BME280;3142;48.206;11.550;2023-08-17T03:18:34;95785.03;;;23.01;72.56
6218;BME280;3142;48.206;11.550;2023-08-17T03:21:00;95783.16;;;23.02;72.03
6218;BME280;3142;48.206;11.550;2023-08-17T03:23:28;95783.72;;;23.04;71.85
6218;BME280;3142;48.206;11.550;2023-08-17T03:25:54;95784.06;;;22.87;72.04
6218;BME280;3142;48.206;11.550;2023-08-17T03:28:21;95789.97;;;22.74;72.49
6218;BME280;3142;48.206;11.550;2023-08-17T03:30:47;95790.81;;;22.59;73.25
6218;BME280;3142;48.206;11.550;2023-08-17T03:33:14;95799.31;;;22.71;72.75
6218;BME280;3142;48.206;11.550;2023-08-17T03:35:40;95797.44;;;22.72;72.84
6218;BME280;3142;48.206;11.550;2023-08-17T03:38:07;95797.50;;;22.62;72.63
6218;BME280;3142;48.206;11.550;2023-08-17T03:40:34;95799.97;;;22.48;72.90
6218;BME280;3142;48.206;11.550;2023-08-17T03:43:01;95792.75;;;22.43;73.28
6218;BME280;3142;48.206;11.550;2023-08-17T03:45:28;95790.41;;;22.37;73.87
6218;BME280;3142;48.206;11.550;2023-08-17T03:47:55;95796.78;;;22.31;73.68
6218;BME280;3142;48.206;11.550;2023-08-17T03:50:21;95800.81;;;22.18;74.21
6218;BME280;3142;48.206;11.550;2023-08-17T03:52:48;95793.13;;;22.11;74.64
6218;BME280;3142;48.206;11.550;2023-08-17T03:55:14;95801.91;;;22.12;74.86
6218;BME280;3142;48.206;11.550;2023-08-17T03:57:42;95790.16;;;22.28;74.09
6218;BME280;3142;48.206;11.550;2023-08-17T04:00:09;95794.91;;;22.41;73.66
6218;BME280;3142;48.206;11.550;2023-08-17T04:02:37;95801.28;;;22.45;73.35
6218;BME280;3142;48.206;11.550;2023-08-17T04:05:04;95798.84;;;22.54;73.38
6218;BME280;3142;48.206;11.550;2023-08-17T04:07:30;95804.97;;;22.60;73.07
6218;BME280;3142;48.206;11.550;2023-08-17T04:09:57;95804.47;;;22.47;72.69
6218;BME280;3142;48.206;11.550;2023-08-17T04:12:23;95809.34;;;22.35;73.38
6218;BME280;3142;48.206;11.550;2023-08-17T04:14:51;95816.78;;;22.38;73.57
6218;BME280;3142;48.206;11.550;2023-08-17T04:17:17;95817.56;;;22.44;73.10
6218;BME280;3142;48.206;11.550;2023-08-17T04:19:44;95816.50;;;22.50;72.80
6218;BME280;3142;48.206;11.550;2023-08-17T04:22:10;95824.47;;;22.55;72.27
6218;BME280;3142;48.206;11.550;2023-08-17T04:24:37;95821.25;;;22.58;71.81
6218;BME280;3142;48.206;11.550;2023-08-17T04:27:04;95819.91;;;22.56;71.98
6218;BME280;3142;48.206;11.550;2023-08-17T04:29:30;95826.84;;;22.57;72.07
6218;BME280;3142;48.206;11.550;2023-08-17T04:31:58;95825.50;;;22.59;71.84
6218;BME280;3142;48.206;11.550;2023-08-17T04:34:25;95828.75;;;22.46;72.35
6218;BME280;3142;48.206;11.550;2023-08-17T04:36:51;95826.41;;;22.29;73.02
6218;BME280;3142;48.206;11.550;2023-08-17T04:39:18;95821.63;;;22.21;73.38
6218;BME280;3142;48.206;11.550;2023-08-17T04:41:45;95825.13;;;22.11;73.88
6218;BME280;3142;48.206;11.550;2023-08-17T04:44:11;95826.41;;;22.04;74.70
6218;BME280;3142;48.206;11.550;2023-08-17T04:46:37;95824.03;;;22.02;74.57
6218;BME280;3142;48.206;11.550;2023-08-17T04:49:05;95824.31;;;22.11;74.39
6218;BME280;3142;48.206;11.550;2023-08-17T04:51:31;95831.25;;;22.07;74.68
6218;BME280;3142;48.206;11.550;2023-08-17T04:53:58;95834.94;;;22.16;74.51
6218;BME280;3142;48.206;11.550;2023-08-17T04:56:24;95835.19;;;22.30;74.07
6218;BME280;3142;48.206;11.550;2023-08-17T04:58:52;95832.78;;;22.38;73.55
6218;BME280;3142;48.206;11.550;2023-08-17T05:01:18;95835.44;;;22.43;73.32
6218;BME280;3142;48.206;11.550;2023-08-17T05:03:45;95838.88;;;22.44;73.52
6218;BME280;3142;48.206;11.550;2023-08-17T05:06:13;95836.47;;;22.47;73.27
6218;BME280;3142;48.206;11.550;2023-08-17T05:08:40;95836.75;;;22.46;73.07
6218;BME280;3142;48.206;11.550;2023-08-17T05:11:06;95827.94;;;22.45;73.26
6218;BME280;3142;48.206;11.550;2023-08-17T05:13:32;95836.47;;;22.47;73.62
6218;BME280;3142;48.206;11.550;2023-08-17T05:15:59;95839.66;;;22.55;73.43
6218;BME280;3142;48.206;11.550;2023-08-17T05:18:25;95836.69;;;22.61;73.65
6218;BME280;3142;48.206;11.550;2023-08-17T05:20:52;95829.25;;;22.58;73.67
6218;BME280;3142;48.206;11.550;2023-08-17T05:23:19;95841.81;;;22.53;73.88
6218;BME280;3142;48.206;11.550;2023-08-17T05:25:46;95844.97;;;22.60;74.29
6218;BME280;3142;48.206;11.550;2023-08-17T05:28:13;95843.38;;;22.64;73.82
6218;BME280;3142;48.206;11.550;2023-08-17T05:30:40;95847.63;;;22.70;73.92
6218;BME280;3142;48.206;11.550;2023-08-17T05:33:06;95844.13;;;22.74;73.49
6218;BME280;3142;48.206;11.550;2023-08-17T05:35:32;95838.53;;;22.76;73.71
6218;BME280;3142;48.206;11.550;2023-08-17T05:37:59;95843.84;;;22.81;73.63
6218;BME280;3142;48.206;11.550;2023-08-17T05:40:29;95841.72;;;22.83;73.77
6218;BME280;3142;48.206;11.550;2023-08-17T05:42:55;95844.66;;;22.76;73.60
6218;BME280;3142;48.206;11.550;2023-08-17T05:45:21;95840.16;;;22.67;74.58
6218;BME280;3142;48.206;11.550;2023-08-17T05:47:48;95839.59;;;22.70;74.67
6218;BME280;3142;48.206;11.550;2023-08-17T05:50:14;95834.25;;;22.80;74.09
6218;BME280;3142;48.206;11.550;2023-08-17T05:52:41;95840.88;;;22.88;74.24
6218;BME280;3142;48.206;11.550;2023-08-17T05:55:08;95847.25;;;22.97;73.67
6218;BME280;3142;48.206;11.550;2023-08-17T05:57:36;95852.03;;;23.00;73.56
6218;BME280;3142;48.206;11.550;2023-08-17T06:00:03;95843.75;;;23.07;73.55
6218;BME280;3142;48.206;11.550;2023-08-17T06:02:29;95847.97;;;23.13;73.42
6218;BME280;3142;48.206;11.550;2023-08-17T06:04:55;95842.38;;;23.14;73.13
6218;BME280;3142;48.206;11.550;2023-08-17T06:07:22;95848.78;;;23.13;73.21
6218;BME280;3142;48.206;11.550;2023-08-17T06:09:48;95855.72;;;23.14;72.82
6218;BME280;3142;48.206;11.550;2023-08-17T06:12:15;95845.81;;;23.20;72.62
6218;BME280;3142;48.206;11.550;2023-08-17T06:14:44;95849.81;;;23.22;72.50
6218;BME280;3142;48.206;11.550;2023-08-17T06:17:10;95857.78;;;23.27;72.39
6218;BME280;3142;48.206;11.550;2023-08-17T06:19:37;95858.28;;;23.29;72.13
6218;BME280;3142;48.206;11.550;2023-08-17T06:22:04;95854.81;;;23.34;72.07
6218;BME280;3142;48.206;11.550;2023-08-17T06:24:31;95847.88;;;23.33;72.34
6218;BME280;3142;48.206;11.550;2023-08-17T06:26:57;95851.41;;;23.23;72.82
6218;BME280;3142;48.206;11.550;2023-08-17T06:29:23;95856.69;;;23.28;73.03
6218;BME280;3142;48.206;11.550;2023-08-17T06:31:51;95847.59;;;23.34;72.87
6218;BME280;3142;48.206;11.550;2023-08-17T06:34:18;95851.59;;;23.37;73.17
6218;BME280;3142;48.206;11.550;2023-08-17T06:36:56;95855.28;;;23.46;72.81
6218;BME280;3142;48.206;11.550;2023-08-17T06:39:23;95848.25;;;23.55;72.35
6218;BME280;3142;48.206;11.550;2023-08-17T06:41:49;95846.38;;;23.61;71.81
6218;BME280;3142;48.206;11.550;2023-08-17T06:44:16;95850.03;;;23.70;71.26
6218;BME280;3142;48.206;11.550;2023-08-17T06:46:42;95854.28;;;23.76;71.19
6218;BME280;3142;48.206;11.550;2023-08-17T06:49:11;95848.88;;;23.81;70.14
6218;BME280;3142;48.206;11.550;2023-08-17T06:51:37;95849.97;;;23.80;69.84
6218;BME280;3142;48.206;11.550;2023-08-17T06:54:04;95857.97;;;23.85;69.82
6218;BME280;3142;48.206;11.550;2023-08-17T06:56:31;95853.41;;;23.86;69.63
6218;BME280;3142;48.206;11.550;2023-08-17T06:58:57;95856.16;;;23.76;69.86
6218;BME280;3142;48.206;11.550;2023-08-17T07:01:23;95858.59;;;23.72;70.27
6218;BME280;3142;48.206;11.550;2023-08-17T07:03:50;95859.34;;;23.78;70.35
6218;BME280;3142;48.206;11.550;2023-08-17T07:06:18;95859.50;;;23.91;69.94
6218;BME280;3142;48.206;11.550;2023-08-17T07:08:44;95861.31;;;24.01;69.81
6218;BME280;3142;48.206;11.550;2023-08-17T07:11:11;95856.31;;;24.18;69.54
6218;BME280;3142;48.206;11.550;2023-08-17T07:13:37;95863.28;;;24.48;68.27
6218;BME280;3142;48.206;11.550;2023-08-17T07:16:04;95868.56;;;24.77;67.37
6218;BME280;3142;48.206;11.550;2023-08-17T07:18:30;95872.56;;;25.04;65.59
6218;BME280;3142;48.206;11.550;2023-08-17T07:20:56;95866.25;;;25.37;65.03
6218;BME280;3142;48.206;11.550;2023-08-17T07:23:24;95861.16;;;25.74;63.58
6218;BME280;3142;48.206;11.550;2023-08-17T07:25:50;95862.50;;;26.09;62.55
6218;BME280;3142;48.206;11.550;2023-08-17T07:28:17;95861.31;;;26.47;61.07
6218;BME280;3142;48.206;11.550;2023-08-17T07:30:43;95867.19;;;26.91;59.78
6218;BME280;3142;48.206;11.550;2023-08-17T07:33:10;95867.47;;;27.30;58.18
6218;BME280;3142;48.206;11.550;2023-08-17T07:35:36;95868.28;;;27.67;57.56
6218;BME280;3142;48.206;11.550;2023-08-17T07:38:03;95860.59;;;27.74;56.39
6218;BME280;3142;48.206;11.550;2023-08-17T07:40:31;95861.94;;;27.85;56.28
6218;BME280;3142;48.206;11.550;2023-08-17T07:42:57;95877.19;;;28.21;55.38
6218;BME280;3142;48.206;11.550;2023-08-17T07:45:24;95878.66;;;28.49;55.06
6218;BME280;3142;48.206;11.550;2023-08-17T07:47:50;95871.41;;;28.58;53.82
6218;BME280;3142;48.206;11.550;2023-08-17T07:50:18;95866.88;;;28.68;52.76
6218;BME280;3142;48.206;11.550;2023-08-17T07:52:45;95875.91;;;29.11;52.28
6218;BME280;3142;48.206;11.550;2023-08-17T07:55:11;95879.56;;;29.15;50.48
6218;BME280;3142;48.206;11.550;2023-08-17T07:57:39;95879.56;;;29.15;50.59
6218;BME280;3142;48.206;11.550;2023-08-17T08:00:06;95871.66;;;29.45;50.38
6218;BME280;3142;48.206;11.550;2023-08-17T08:02:33;95871.56;;;29.93;49.95
6218;BME280;3142;48.206;11.550;2023-08-17T08:04:59;95867.75;;;30.12;49.63
6218;BME280;3142;48.206;11.550;2023-08-17T08:07:25;95865.13;;;30.41;48.63
6218;BME280;3142;48.206;11.550;2023-08-17T08:09:52;95856.03;;;30.54;48.63
6218;BME280;3142;48.206;11.550;2023-08-17T08:12:18;95858.97;;;30.79;47.54
6218;BME280;3142;48.206;11.550;2023-08-17T08:14:46;95865.53;;;30.69;47.21
6218;BME280;3142;48.206;11.550;2023-08-17T08:17:13;95863.47;;;31.04;47.21
6218;BME280;3142;48.206;11.550;2023-08-17T08:19:40;95862.88;;;31.28;46.98
6218;BME280;3142;48.206;11.550;2023-08-17T08:22:06;95861.31;;;31.69;45.96
6218;BME280;3142;48.206;11.550;2023-08-17T08:24:32;95858.88;;;31.97;46.31
6218;BME280;3142;48.206;11.550;2023-08-17T08:27:00;95861.94;;;32.28;46.53
6218;BME280;3142;48.206;11.550;2023-08-17T08:29:26;95862.06;;;32.44;45.65
6218;BME280;3142;48.206;11.550;2023-08-17T08:31:54;95863.00;;;32.60;44.55
6218;BME280;3142;48.206;11.550;2023-08-17T08:34:22;95863.63;;;32.90;44.81
6218;BME280;3142;48.206;11.550;2023-08-17T08:36:49;95856.50;;;33.10;45.07
6218;BME280;3142;48.206;11.550;2023-08-17T08:39:15;95862.94;;;33.06;44.79
6218;BME280;3142;48.206;11.550;2023-08-17T08:41:42;95866.31;;;33.15;43.67
6218;BME280;3142;48.206;11.550;2023-08-17T08:44:08;95869.59;;;33.33;43.21
6218;BME280;3142;48.206;11.550;2023-08-17T08:46:37;95873.72;;;33.67;42.81
6218;BME280;3142;48.206;11.550;2023-08-17T08:49:09;95866.22;;;33.88;43.09
6218;BME280;3142;48.206;11.550;2023-08-17T08:51:39;95864.88;;;34.10;42.19
6218;BME280;3142;48.206;11.550;2023-08-17T08:54:08;95858.75;;;34.41;41.27
6218;BME280;3142;48.206;11.550;2023-08-17T08:56:41;95862.34;;;34.61;41.15
6218;BME280;3142;48.206;11.550;2023-08-17T08:59:09;95861.84;;;34.87;40.16
6218;BME280;3142;48.206;11.550;2023-08-17T09:01:36;95860.25;;;35.01;39.63
6218;BME280;3142;48.206;11.550;2023-08-17T09:04:04;95858.16;;;34.95;39.65
6218;BME280;3142;48.206;11.550;2023-08-17T09:06:33;95860.16;;;35.14;39.37
6218;BME280;3142;48.206;11.550;2023-08-17T09:09:00;95857.22;;;35.22;39.79
6218;BME280;3142;48.206;11.550;2023-08-17T09:11:27;95853.44;;;35.43;38.73
6218;BME280;3142;48.206;11.550;2023-08-17T09:13:55;95854.41;;;35.70;38.08
6218;BME280;3142;48.206;11.550;2023-08-17T09:16:21;95846.09;;;35.82;38.47
6218;BME280;3142;48.206;11.550;2023-08-17T09:18:48;95849.53;;;35.79;38.58
6218;BME280;3142;48.206;11.550;2023-08-17T09:21:21;95853.72;;;35.92;38.48
6218;BME280;3142;48.206;11.550;2023-08-17T09:23:52;95851.69;;;35.50;38.24
6218;BME280;3142;48.206;11.550;2023-08-17T09:26:19;95845.28;;;35.62;38.19
6218;BME280;3142;48.206;11.550;2023-08-17T09:28:45;95845.97;;;35.94;37.84
6218;BME280;3142;48.206;11.550;2023-08-17T09:31:12;95847.41;;;36.07;37.91
6218;BME280;3142;48.206;11.550;2023-08-17T09:33:39;95840.63;;;36.40;36.89
6218;BME280;3142;48.206;11.550;2023-08-17T09:36:05;95840.88;;;36.54;36.34
6218;BME280;3142;48.206;11.550;2023-08-17T09:38:31;95835.81;;;36.79;36.83
6218;BME280;3142;48.206;11.550;2023-08-17T09:40:59;95839.38;;;37.06;36.52
6218;BME280;3142;48.206;11.550;2023-08-17T09:43:26;95844.06;;;37.05;36.26
6218;BME280;3142;48.206;11.550;2023-08-17T09:45:56;95835.91;;;37.09;35.56
6218;BME280;3142;48.206;11.550;2023-08-17T09:48:22;95841.78;;;37.11;35.27
6218;BME280;3142;48.206;11.550;2023-08-17T09:50:51;95839.06;;;37.11;36.33
6218;BME280;3142;48.206;11.550;2023-08-17T09:53:18;95844.81;;;37.02;35.85
6218;BME280;3142;48.206;11.550;2023-08-17T09:55:45;95842.78;;;36.99;36.43
6218;BME280;3142;48.206;11.550;2023-08-17T09:58:13;95843.38;;;37.12;35.81
6218;BME280;3142;48.206;11.550;2023-08-17T10:00:43;95840.81;;;36.73;36.62
6218;BME280;3142;48.206;11.550;2023-08-17T10:03:11;95833.84;;;36.11;36.66
6218;BME280;3142;48.206;11.550;2023-08-17T10:05:40;95831.31;;;35.83;37.00
6218;BME280;3142;48.206;11.550;2023-08-17T10:08:07;95833.41;;;35.70;37.34
6218;BME280;3142;48.206;11.550;2023-08-17T10:10:35;95835.81;;;35.37;37.72
6218;BME280;3142;48.206;11.550;2023-08-17T10:13:08;95835.84;;;35.56;37.96
6218;BME280;3142;48.206;11.550;2023-08-17T10:15:42;95836.13;;;35.51;37.38
6218;BME280;3142;48.206;11.550;2023-08-17T10:18:16;95829.81;;;35.47;37.79
6218;BME280;3142;48.206;11.550;2023-08-17T10:20:58;95832.34;;;35.94;37.47
6218;BME280;3142;48.206;11.550;2023-08-17T10:23:27;95829.97;;;36.12;36.85
6218;BME280;3142;48.206;11.550;2023-08-17T10:25:54;95832.63;;;36.08;36.63
6218;BME280;3142;48.206;11.550;2023-08-17T10:28:22;95829.22;;;36.15;37.05
6218;BME280;3142;48.206;11.550;2023-08-17T10:30:51;95827.19;;;35.89;36.88
6218;BME280;3142;48.206;11.550;2023-08-17T10:33:17;95832.47;;;36.20;37.00
6218;BME280;3142;48.206;11.550;2023-08-17T10:35:45;95836.25;;;36.35;36.27
6218;BME280;3142;48.206;11.550;2023-08-17T10:38:12;95830.44;;;36.83;36.27
6218;BME280;3142;48.206;11.550;2023-08-17T10:40:41;95830.28;;;36.98;36.21
6218;BME280;3142;48.206;11.550;2023-08-17T10:43:08;95825.34;;;36.35;36.80
6218;BME280;3142;48.206;11.550;2023-08-17T10:45:36;95826.28;;;36.24;36.82
6218;BME280;3142;48.206;11.550;2023-08-17T10:48:28;95821.84;;;36.15;37.05
6218;BME280;3142;48.206;11.550;2023-08-17T10:51:02;95819.44;;;35.91;37.17
6218;BME280;3142;48.206;11.550;2023-08-17T10:53:34;95816.50;;;35.26;38.54
6218;BME280;3142;48.206;11.550;2023-08-17T10:56:06;95823.50;;;34.76;38.98
6218;BME280;3142;48.206;11.550;2023-08-17T10:58:33;95821.38;;;35.01;38.76
6218;BME280;3142;48.206;11.550;2023-08-17T11:00:59;95822.00;;;34.63;39.83
6218;BME280;3142;48.206;11.550;2023-08-17T11:03:27;95819.03;;;34.52;39.79
6218;BME280;3142;48.206;11.550;2023-08-17T11:05:54;95818.78;;;35.59;38.68
6218;BME280;3142;48.206;11.550;2023-08-17T11:08:23;95816.69;;;36.10;37.42
6218;BME280;3142;48.206;11.550;2023-08-17T11:10:57;95824.19;;;36.82;36.35
6218;BME280;3142;48.206;11.550;2023-08-17T11:13:24;95816.44;;;37.37;35.33
6218;BME280;3142;48.206;11.550;2023-08-17T11:15:53;95816.22;;;37.49;35.46
6218;BME280;3142;48.206;11.550;2023-08-17T11:18:19;95814.06;;;36.83;37.05
6218;BME280;3142;48.206;11.550;2023-08-17T11:20:47;95814.50;;;35.97;38.41
6218;BME280;3142;48.206;11.550;2023-08-17T11:23:14;95807.09;;;35.58;38.35
6218;BME280;3142;48.206;11.550;2023-08-17T11:25:41;95804.09;;;35.83;37.31
6218;BME280;3142;48.206;11.550;2023-08-17T11:28:08;95807.66;;;36.48;36.12
6218;BME280;3142;48.206;11.550;2023-08-17T11:30:35;95805.16;;;36.86;36.20
6218;BME280;3142;48.206;11.550;2023-08-17T11:33:04;95806.25;;;36.58;36.67
6218;BME280;3142;48.206;11.550;2023-08-17T11:35:31;95795.56;;;36.27;36.97
6218;BME280;3142;48.206;11.550;2023-08-17T11:37:59;95796.00;;;36.29;36.91
6218;BME280;3142;48.206;11.550;2023-08-17T11:40:26;95795.41;;;36.62;36.02
6218;BME280;3142;48.206;11.550;2023-08-17T11:42:53;95793.00;;;37.06;35.92
6218;BME280;3142;48.206;11.550;2023-08-17T11:45:19;95789.66;;;37.46;35.41
6218;BME280;3142;48.206;11.550;2023-08-17T11:47:47;95794.75;;;37.78;35.56
6218;BME280;3142;48.206;11.550;2023-08-17T11:50:13;95789.38;;;37.85;34.18
6218;BME280;3142;48.206;11.550;2023-08-17T11:52:40;95790.59;;;37.91;33.60
6218;BME280;3142;48.206;11.550;2023-08-17T11:55:09;95786.56;;;37.81;34.28
6218;BME280;3142;48.206;11.550;2023-08-17T11:57:36;95780.16;;;37.36;34.22
6218;BME280;3142;48.206;11.550;2023-08-17T12:00:04;95770.94;;;36.92;35.09
6218;BME280;3142;48.206;11.550;2023-08-17T12:02:32;95776.91;;;36.74;36.02
6218;BME280;3142;48.206;11.550;2023-08-17T12:05:03;95775.31;;;36.05;36.44
6218;BME280;3142;48.206;11.550;2023-08-17T12:07:31;95773.41;;;35.86;36.33
6218;BME280;3142;48.206;11.550;2023-08-17T12:09:58;95773.84;;;35.69;37.40
6218;BME280;3142;48.206;11.550;2023-08-17T12:12:26;95771.75;;;35.62;38.07
6218;BME280;3142;48.206;11.550;2023-08-17T12:14:54;95758.34;;;35.34;37.74
6218;BME280;3142;48.206;11.550;2023-08-17T12:17:21;95766.91;;;35.17;37.61
6218;BME280;3142;48.206;11.550;2023-08-17T12:19:49;95764.25;;;35.20;38.10
6218;BME280;3142;48.206;11.550;2023-08-17T12:22:16;95764.25;;;35.01;37.96
6218;BME280;3142;48.206;11.550;2023-08-17T12:24:43;95762.63;;;34.49;36.97
6218;BME280;3142;48.206;11.550;2023-08-17T12:27:10;95759.34;;;34.12;38.25
6218;BME280;3142;48.206;11.550;2023-08-17T12:29:47;95751.75;;;34.02;38.20
6218;BME280;3142;48.206;11.550;2023-08-17T12:32:14;95742.19;;;34.24;38.33
6218;BME280;3142;48.206;11.550;2023-08-17T12:34:40;95740.88;;;34.49;38.76
6218;BME280;3142;48.206;11.550;2023-08-17T12:37:08;95734.56;;;34.29;38.79
6218;BME280;3142;48.206;11.550;2023-08-17T12:39:34;95732.13;;;34.40;39.12
6218;BME280;3142;48.206;11.550;2023-08-17T12:42:01;95726.59;;;34.52;38.06
6218;BME280;3142;48.206;11.550;2023-08-17T12:44:27;95726.78;;;34.43;37.71
6218;BME280;3142;48.206;11.550;2023-08-17T12:46:55;95725.44;;;34.06;37.62
6218;BME280;3142;48.206;11.550;2023-08-17T12:49:22;95729.75;;;34.07;38.18
6218;BME280;3142;48.206;11.550;2023-08-17T12:51:49;95715.09;;;34.11;38.52
6218;BME280;3142;48.206;11.550;2023-08-17T12:54:15;95725.63;;;34.13;38.96
6218;BME280;3142;48.206;11.550;2023-08-17T12:56:41;95708.78;;;33.92;38.80
6218;BME280;3142;48.206;11.550;2023-08-17T12:59:08;95713.63;;;33.70;39.01
6218;BME280;3142;48.206;11.550;2023-08-17T13:01:34;95712.41;;;33.83;40.00
6218;BME280;3142;48.206;11.550;2023-08-17T13:04:02;95709.41;;;34.01;39.59
6218;BME280;3142;48.206;11.550;2023-08-17T13:06:29;95711.16;;;34.09;38.75
6218;BME280;3142;48.206;11.550;2023-08-17T13:08:55;95707.84;;;34.00;38.40
6218;BME280;3142;48.206;11.550;2023-08-17T13:11:21;95712.59;;;33.75;37.63